Stations météo

réclame
Mon MeteoGroup
Carpentras, France (7586): Température de l'air & dewpoint: 10.06.2019 02:00:00 - 16.06.2019 02:00:00 (CEST)Carpentras, France (7586): Température de l'air 5cm: 10.06.2019 02:00:00 - 16.06.2019 02:00:00 (CEST)Carpentras, France (7586): Vitesse du vent & gusts: 10.06.2019 02:00:00 - 16.06.2019 02:00:00 (CEST)Carpentras, France (7586): Direction du vent: 10.06.2019 02:00:00 - 16.06.2019 02:00:00 (CEST)Carpentras, France (7586): reduced air pressure: 10.06.2019 02:00:00 - 16.06.2019 02:00:00 (CEST)Carpentras, France (7586): Ensoleillement: 10.06.2019 02:00:00 - 16.06.2019 02:00:00 (CEST)Carpentras, France (7586): Quantités de précipitations: 10.06.2019 02:00:00 - 16.06.2019 02:00:00 (CEST)
Date & Time tt [°C] td [°C] tt 5cm [°C] ff [km/h] ff [knt] fx [km/h] fx [knt] dd ppp [hPa] sd [min] rr [mm]
16.06.2019 02:00:00 18,1 9,7 15,5 11 6 22 12 NNW 1018,1 0 0,0
16.06.2019 01:00:00 18,4 9,7 16,4 10 5 23 12 NNW 1018,1 0 0,0
16.06.2019 00:00:00 18,9 10,5 15,3 11 6 29 16 NNW 1017,9 0 0,0
15.06.2019 23:00:00 17,5 13,2 15,1 7 4 16 9 WNW 1017,4 0 0,0
15.06.2019 22:00:00 19,3 13,0 16,6 9 5 18 10 W 1016,7 8 0,0
15.06.2019 21:00:00 22,1 10,6 21,2 14 7 26 14 NW 1016,4 60 0,0
15.06.2019 20:00:00 23,5 13,1 24,3 9 5 19 10 NW 1016,1 13 0,0
15.06.2019 19:00:00 23,3 13,7 24,9 6 3 24 13 NNE 1016,2 13 0,0
15.06.2019 18:00:00 23,2 12,8 26,2 13 7 39 21 N 1016,4 18 0,0
15.06.2019 17:00:00 27,3 17,2 30,2 8 5 25 14 SW 1015,6 32 0,0
15.06.2019 16:00:00 27,9 17,4 33,1 13 7 29 16 SW 1015,8 43 0,0
15.06.2019 15:00:00 27,5 18,8 30,9 13 7 34 18 SW 1015,3 36 0,0
15.06.2019 14:00:00 26,4 19,0 28,6 14 8 26 14 WSW 1015,4 17 0,0
15.06.2019 13:00:00 26,0 18,7 26,8 5 3 19 10 SSW 1015,3 36 0,0
15.06.2019 12:00:00 23,8 18,0 25,8 9 5 19 10 SW 1015,9 11 0,0
15.06.2019 11:00:00 23,7 17,4 27,5 12 6 20 11 WNW 1015,9 34 0,0
15.06.2019 10:00:00 24,3 18,0 28,1 6 4 13 7 W 1015,5 50 0,0
15.06.2019 09:00:00 21,6 17,6 19,9 7 4 13 7 NNW 1015,3 37 0,0
15.06.2019 08:00:00 19,1 17,1 19,4 3 2 9 5 WNW 1015,6 0 0,0
15.06.2019 07:00:00 19,1 17,8 18,7 4 2 7 4 WNW 1015,1 0 0,0
15.06.2019 06:00:00 19,0 17,7 18,8 3 2 10 6 WNW 1014,7 0 0,0
15.06.2019 05:00:00 19,3 18,0 18,7 4 2 12 7 W 1014,4 0 0,0
15.06.2019 04:00:00 20,1 18,9 19,8 4 2 10 6 SSW 1013,9 0 0,0
15.06.2019 03:00:00 20,3 19,1 19,8 3 1 6 3 SSW 1013,5 0 0,0
15.06.2019 02:00:00 20,5 19,0 19,8 0 0 5 3 N 1013,5 0 0,0
15.06.2019 01:00:00 21,1 18,7 20,0 0 0 12 7 N 1013,5 0 0,2
15.06.2019 00:00:00 21,5 17,9 20,4 3 2 11 6 W 1012,9 0 0,0
14.06.2019 23:00:00 21,5 17,5 20,7 4 2 16 8 NNW 1011,8 0 0,0
14.06.2019 22:00:00 22,2 17,3 21,4 8 4 23 13 ENE 1011,0 0 0,0
14.06.2019 21:00:00 23,6 16,9 22,7 14 7 34 19 SW 1010,5 0 0,0
14.06.2019 20:00:00 27,6 14,6 26,9 10 5 46 25 SW 1008,5 30 0,0
14.06.2019 19:00:00 30,0 11,0 32,8 17 9 47 25 SSE 1007,4 58 0,0
14.06.2019 18:00:00 28,8 14,6 31,8 5 3 28 15 WNW 1006,8 47 0,0
14.06.2019 17:00:00 27,5 15,2 28,8 11 6 27 14 W 1007,1 3 0,0
14.06.2019 16:00:00 28,2 14,8 29,6 16 9 29 16 ENE 1004,4 5 0,0
14.06.2019 15:00:00 29,5 15,6 33,0 8 4 18 10 NW 1007,9 28 0,0
14.06.2019 14:00:00 26,3 14,7 30,0 9 5 15 8 WNW 1008,5 23 0,0
14.06.2019 13:00:00 24,1 13,3 27,4 5 3 11 6 NE 1010,2 15 0,0
14.06.2019 12:00:00 22,1 13,2 22,8 4 2 13 7 N 1011,5 8 0,0
14.06.2019 11:00:00 20,2 11,7 19,8 2 1 21 11 NE 1011,2 2 0,0
14.06.2019 10:00:00 21,4 12,3 21,7 7 4 16 9 SW 1010,6 11 0,0
14.06.2019 09:00:00 17,7 12,2 16,1 4 2 11 6 WSW 1012,3 0 0,0
14.06.2019 08:00:00 16,0 10,7 14,5 8 5 18 10 ENE 1012,9 0 0,0
14.06.2019 07:00:00 14,6 12,1 13,4 8 5 16 8 E 1014,3 0 0,0
14.06.2019 06:00:00 14,1 11,6 12,8 5 3 10 6 ESE 1011,9 0 0,0
14.06.2019 05:00:00 13,8 11,8 12,7 0 0 9 5 N 1012,3 0 0,0
14.06.2019 04:00:00 14,2 12,2 13,1 4 2 13 7 S 1013,8 0 0,0
14.06.2019 03:00:00 14,7 12,6 13,4 4 2 9 5 ESE 1014,5 0 0,0
14.06.2019 02:00:00 14,9 12,2 13,4 2 1 11 6 E 1014,4 0 0,0
14.06.2019 01:00:00 16,0 12,4 14,8 2 1 11 6 ESE 1015,2 0 0,0
14.06.2019 00:00:00 16,1 12,3 14,9 2 1 9 5 E 1014,7 0 0,0
13.06.2019 23:00:00 16,9 11,4 14,7 2 1 6 3 NE 1015,5 0 0,0
13.06.2019 22:00:00 18,9 11,5 16,5 2 1 5 3 SSW 1015,3 0 0,0
13.06.2019 21:00:00 21,3 9,2 19,6 3 2 21 12 WSW 1014,4 6 0,0
13.06.2019 20:00:00 23,7 10,4 23,7 11 6 24 13 SW 1013,9 20 0,0
13.06.2019 19:00:00 27,6 10,8 31,2 11 6 23 13 SW 1012,9 53 0,0
13.06.2019 18:00:00 29,1 10,2 33,8 13 7 26 14 SSW 1013,0 55 0,0
13.06.2019 17:00:00 29,4 9,5 33,8 9 5 21 12 WSW 1013,5 58 0,0
13.06.2019 16:00:00 29,2 6,5 37,9 6 4 20 11 SSW 1013,8 60 0,0
13.06.2019 15:00:00 27,8 9,1 37,3 8 4 18 10 WSW 1014,4 60 0,0
13.06.2019 14:00:00 26,1 9,9 34,7 5 3 16 9 WSW 1014,7 60 0,0
13.06.2019 13:00:00 24,6 11,2 34,7 5 3 17 9 SW 1015,2 60 0,0
13.06.2019 12:00:00 23,0 11,4 31,9 7 4 15 8 W 1015,6 60 0,0
13.06.2019 11:00:00 21,1 10,0 29,0 3 1 9 5 NNW 1015,8 60 0,0
13.06.2019 10:00:00 18,6 10,2 24,9 3 2 7 4 S 1016,1 60 0,0
13.06.2019 09:00:00 16,0 10,1 16,1 4 2 9 5 SSE 1016,5 60 0,0
13.06.2019 08:00:00 12,7 9,7 8,5 4 2 9 5 SE 1016,3 60 0,0
13.06.2019 07:00:00 8,9 8,3 7,0 2 1 11 6 NW 1015,7 29 0,0
13.06.2019 06:00:00 8,6 7,7 6,8 5 3 9 5 ESE 1015,2 0 0,0
13.06.2019 05:00:00 9,2 8,3 7,4 6 4 12 7 ESE 1015,5 0 0,0
13.06.2019 04:00:00 9,7 8,6 7,9 4 2 10 5 ESE 1015,7 0 0,2
13.06.2019 03:00:00 10,3 9,1 8,6 6 3 10 5 ESE 1016,0 0 0,0
13.06.2019 02:00:00 11,2 9,5 9,6 7 4 11 6 E 1016,4 0 0,0
13.06.2019 01:00:00 11,9 10,0 10,0 5 3 12 6 E 1016,2 0 0,0
13.06.2019 00:00:00 12,7 10,2 10,4 5 3 8 4 E 1016,2 0 0,0
12.06.2019 23:00:00 14,2 9,8 11,3 3 2 6 3 ESE 1015,7 0 0,0
12.06.2019 22:00:00 16,1 9,3 12,8 3 2 16 9 S 1014,8 4 0,0
12.06.2019 21:00:00 20,0 9,5 16,7 8 5 18 10 SW 1013,8 60 0,0
12.06.2019 20:00:00 23,0 8,7 25,9 9 5 22 12 SW 1013,1 60 0,0
12.06.2019 19:00:00 24,2 7,8 30,4 9 5 21 11 SW 1012,7 60 0,0
12.06.2019 18:00:00 25,2 7,8 32,3 8 4 18 10 WSW 1012,7 60 0,0
12.06.2019 17:00:00 24,7 7,3 31,7 6 3 16 9 WSW 1013,1 60 0,0
12.06.2019 16:00:00 24,1 6,4 32,2 8 5 21 12 WSW 1013,2 60 0,0
12.06.2019 15:00:00 22,4 6,6 32,7 6 4 18 10 WNW 1013,4 60 0,0
12.06.2019 14:00:00 22,4 7,8 30,6 8 5 23 12 W 1013,5 60 0,0
12.06.2019 13:00:00 21,3 8,5 29,7 13 7 27 14 WNW 1013,4 60 0,0
12.06.2019 12:00:00 20,0 9,3 28,2 9 5 21 11 WNW 1013,8 60 0,0
12.06.2019 11:00:00 18,2 10,8 26,9 11 6 20 11 WNW 1013,7 60 0,0
12.06.2019 10:00:00 15,7 12,8 18,2 10 5 18 10 W 1013,9 56 0,0
12.06.2019 09:00:00 13,3 12,5 14,5 3 2 8 5 W 1013,8 29 0,0
12.06.2019 08:00:00 12,3 12,0 11,9 5 3 9 5 ESE 1013,4 16 0,0
12.06.2019 07:00:00 11,5 11,2 11,8 0 0 9 5 N 1013,1 0 0,0
12.06.2019 06:00:00 11,9 11,7 12,0 0 0 9 5 N 1012,7 0 0,0
12.06.2019 05:00:00 12,3 12,1 9,5 4 2 9 5 WNW 1012,6 0 0,0
12.06.2019 04:00:00 12,7 12,1 11,6 0 0 14 8 N 1012,6 0 0,0
12.06.2019 03:00:00 13,1 12,6 13,0 2 1 8 4 SSW 1012,9 0 0,4
12.06.2019 02:00:00 13,2 12,7 13,2 0 0 6 3 N 1012,5 0 1,8
12.06.2019 01:00:00 13,3 12,7 13,2 4 2 7 4 SW 1013,0 0 2,2
12.06.2019 00:00:00 13,5 13,0 13,3 2 1 5 3 WSW 1012,8 0 0,2
11.06.2019 23:00:00 13,1 12,5 13,0 2 1 4 2 S 1012,4 0 0,0
11.06.2019 22:00:00 13,0 12,2 12,9 0 0 8 4 N 1012,6 0 0,0
11.06.2019 21:00:00 13,3 12,5 13,1 5 3 8 4 E 1012,1 0 0,6
11.06.2019 20:00:00 13,5 12,6 13,4 0 0 10 5 N 1012,5 0 2,6
11.06.2019 19:00:00 14,5 13,0 14,2 5 3 9 5 SSW 1012,7 0 1,7
11.06.2019 18:00:00 15,1 12,6 15,0 0 0 5 3 N 1011,9 0 0,6
11.06.2019 17:00:00 15,6 13,3 15,5 4 2 8 5 SW 1012,0 0 0,2
11.06.2019 16:00:00 15,5 13,2 15,7 3 1 13 7 SSW 1012,2 0 1,6
11.06.2019 15:00:00 15,9 13,7 15,8 3 2 7 4 S 1012,6 0 2,0
11.06.2019 14:00:00 16,6 13,7 16,2 5 3 11 6 S 1012,2 0 0,6
11.06.2019 13:00:00 17,1 13,4 18,5 6 3 11 6 WSW 1011,5 0 0,0
11.06.2019 12:00:00 15,9 12,5 15,2 4 2 8 5 WSW 1011,3 0 0,4
11.06.2019 11:00:00 14,8 11,0 14,5 2 1 10 5 ENE 1011,7 0 0,4
11.06.2019 10:00:00 15,0 11,6 15,0 4 2 7 4 SW 1011,3 0 0,0
11.06.2019 09:00:00 14,5 10,5 15,0 6 3 12 6 SSW 1011,0 0 0,0
11.06.2019 08:00:00 14,1 9,9 14,2 5 3 10 6 E 1010,5 0 0,0
11.06.2019 07:00:00 13,6 11,1 13,2 2 1 5 3 S 1010,3 0 0,0
11.06.2019 06:00:00 13,6 10,6 13,1 4 2 10 5 SSE 1009,7 0 0,0
11.06.2019 05:00:00 14,0 11,0 13,3 0 0 5 3 N 1010,0 0 0,0
11.06.2019 04:00:00 15,1 10,7 14,9 3 2 11 6 ESE 1010,0 0 0,0
11.06.2019 03:00:00 15,5 11,5 15,3 3 2 8 4 SW 1010,7 0 0,0
11.06.2019 02:00:00 15,5 10,7 15,0 5 3 8 5 NNW 1011,0 0 0,0
11.06.2019 01:00:00 15,5 10,7 14,4 5 3 18 10 NNW 1011,0 0 0,0
11.06.2019 00:00:00 16,4 10,3 15,3 10 6 26 14 NNW 1011,1 0 0,0
10.06.2019 23:00:00 16,6 10,9 15,4 7 4 25 13 NW 1011,0 0 0,0
10.06.2019 22:00:00 17,6 12,1 16,9 13 7 29 16 NW 1010,5 0 0,0
10.06.2019 21:00:00 20,7 11,6 20,0 10 5 31 17 NNW 1009,4 50 0,0
10.06.2019 20:00:00 23,8 11,1 27,2 15 8 30 16 NNW 1009,1 60 0,0
10.06.2019 19:00:00 24,6 12,5 24,7 13 7 26 14 N 1008,5 32 0,0
10.06.2019 18:00:00 23,0 15,6 18,8 7 4 23 12 N 1009,2 35 2,2
10.06.2019 17:00:00 20,7 15,0 21,5 14 8 31 17 WNW 1009,6 2 0,0
10.06.2019 16:00:00 24,6 13,5 27,7 19 11 32 17 WNW 1009,8 5 0,0
10.06.2019 15:00:00 26,0 11,0 29,8 14 8 36 19 NNW 1009,8 26 0,0
10.06.2019 14:00:00 26,9 12,2 32,4 17 9 42 23 NNW 1009,7 48 0,0
10.06.2019 13:00:00 25,8 13,0 30,4 15 8 41 22 NNW 1010,7 55 0,0
10.06.2019 12:00:00 24,0 14,7 28,6 22 12 39 21 WNW 1011,1 39 0,0
10.06.2019 11:00:00 24,2 14,6 29,2 16 9 33 18 WNW 1010,8 52 0,0
10.06.2019 10:00:00 21,7 14,6 22,1 3 2 13 7 WSW 1011,4 19 0,0
10.06.2019 09:00:00 19,9 14,3 20,8 8 4 14 7 ESE 1011,1 13 0,0
10.06.2019 08:00:00 18,5 14,6 18,9 5 3 14 8 ESE 1011,6 14 0,0
10.06.2019 07:00:00 16,9 14,5 15,6 2 1 6 4 SE 1012,1 0 0,0
10.06.2019 06:00:00 16,0 14,4 13,6 6 3 18 10 NW 1012,4 0 0,0
10.06.2019 05:00:00 16,1 13,9 13,7 6 3 9 5 ENE 1013,1 0 0,0
10.06.2019 04:00:00 16,9 14,2 15,2 2 1 16 9 S 1014,2 0 0,0
10.06.2019 03:00:00 18,0 14,5 16,6 5 3 13 7 W 1014,5 0 0,0
10.06.2019 02:00:00 18,7 14,4 17,9 3 1 10 5 N 1014,7 0 0,0

tt = Température de l'air
td = dewpoint
tt 5cm = Température de l'air 5cm
ff = Vitesse du vent
fx = gusts
dd = Direction du vent
ppp = reduced air pressure
sd = Ensoleillement
rr = Quantités de précipitations

stations d'obs. à proximité